KISW

Alexander Field South Wood County Airport

Wisconsin Rapids, Wisconsin, USA
METAR KISW 230254Z AUTO 23004KT 10SM CLR 15/13 A3009 RMK AO2 SLP190 T01500133 53012 TSNO
Observed Flight Rules
May-23 @ 02:54 UTC (8 minutes ago) Visual Flight Rules
Wind Visibility Clouds
230° at 4 knots 10 miles
  • Clear skies
Temperatures Readings
Current 15°C / 59°F
Dewpoint 13°C / 55°F
Humidity 88%
Altimeter 30.09" Hg
Pressure 1019 hPa
Elevation 307
METAR KISW 230254Z AUTO 23004KT 10SM CLR 15/13 A3009 RMK AO2 SLP190 T01500133 53012 TSNO
Observed Flight Rules
May-23 @ 02:54 UTC
(8 minutes ago)
VFR
Wind Visibility
230° at 4 knots 10 miles
Clouds
  • Clear skies
Temperature Dewpoint
15°C / 59°F 13°C / 55°F
Humidity Altimeter Pressure
88% 30.09" Hg 1019 hPa